Time,TemperatureF,DewpointF,PressureIn,WindDirection,WindDirectionDegrees,WindSpeedMPH,WindSpeedGustMPH,Humidity,HourlyPrecipIn,Conditions,Clouds,dailyrainin,SoftwareType,DateUTC
2013-04-19 00:03:00,57.0,39.0,30.04,North,10,9.0,-999.0,50,0.00,,,0.36,,2013-04-19 05:03:00,
2013-04-19 00:11:00,57.0,39.0,30.04,North,10,9.0,-999.0,50,0.00,,,0.36,,2013-04-19 05:11:00,
2013-04-19 00:22:00,56.0,38.0,30.03,North,11,14.0,-999.0,50,0.00,,,0.00,,2013-04-19 05:22:00,
2013-04-19 00:32:00,56.0,38.0,30.05,NE,37,10.0,-999.0,51,0.00,,,0.00,,2013-04-19 05:32:00,
2013-04-19 00:42:00,56.0,38.0,30.05,NE,37,10.0,-999.0,51,0.00,,,0.00,,2013-04-19 05:42:00,
2013-04-19 00:52:00,56.0,39.0,30.07,NNE,32,7.0,-999.0,52,0.00,,,0.00,,2013-04-19 05:52:00,
2013-04-19 01:01:00,55.0,39.0,30.08,North,10,6.0,-999.0,54,0.00,,,0.00,,2013-04-19 06:01:00,
2013-04-19 01:11:00,55.0,39.0,30.09,NE,49,5.0,-999.0,54,0.00,,,0.00,,2013-04-19 06:11:00,
2013-04-19 01:22:00,55.0,39.0,30.09,NE,49,5.0,-999.0,54,0.00,,,0.00,,2013-04-19 06:22:00,
2013-04-19 01:32:00,54.0,39.0,30.11,North,5,6.0,-999.0,57,0.00,,,0.00,,2013-04-19 06:32:00,
2013-04-19 01:42:00,54.0,39.0,30.11,North,5,6.0,-999.0,57,0.00,,,0.00,,2013-04-19 06:42:00,
2013-04-19 01:52:00,54.0,38.0,30.14,NNE,19,6.0,-999.0,55,0.00,,,0.00,,2013-04-19 06:52:00,
2013-04-19 02:02:00,53.0,38.0,30.14,NNE,22,7.0,-999.0,57,0.00,,,0.00,,2013-04-19 07:02:00,
2013-04-19 02:12:00,53.0,39.0,30.15,NNE,13,5.0,-999.0,58,0.00,,,0.00,,2013-04-19 07:12:00,
2013-04-19 02:21:00,53.0,39.0,30.15,NNE,13,5.0,-999.0,58,0.00,,,0.00,,2013-04-19 07:21:00,
2013-04-19 02:32:00,53.0,38.0,30.16,North,360,5.0,-999.0,57,0.00,,,0.00,,2013-04-19 07:32:00,
2013-04-19 02:42:00,53.0,38.0,30.16,North,360,5.0,-999.0,57,0.00,,,0.00,,2013-04-19 07:42:00,
2013-04-19 02:52:00,52.0,37.0,30.17,NE,46,6.0,-999.0,57,0.00,,,0.00,,2013-04-19 07:52:00,
2013-04-19 03:02:00,52.0,37.0,30.18,ENE,57,4.0,-999.0,57,0.00,,,0.00,,2013-04-19 08:02:00,
2013-04-19 03:12:00,51.0,37.0,30.19,NNE,27,4.0,-999.0,59,0.00,,,0.00,,2013-04-19 08:12:00,
2013-04-19 03:21:00,51.0,37.0,30.19,NNE,27,4.0,-999.0,59,0.00,,,0.00,,2013-04-19 08:21:00,
2013-04-19 03:32:00,50.0,37.0,30.19,NNE,26,3.0,-999.0,61,0.00,,,0.00,,2013-04-19 08:32:00,
2013-04-19 03:42:00,50.0,38.0,30.19,NNE,28,2.0,-999.0,63,0.00,,,0.00,,2013-04-19 08:42:00,
2013-04-19 03:52:00,50.0,38.0,30.19,NNE,28,2.0,-999.0,63,0.00,,,0.00,,2013-04-19 08:52:00,
2013-04-19 04:01:00,48.0,37.0,30.20,NNE,26,2.0,-999.0,65,0.00,,,0.00,,2013-04-19 09:01:00,
2013-04-19 04:11:00,47.0,37.0,30.20,NNE,26,1.0,-999.0,68,0.00,,,0.00,,2013-04-19 09:11:00,
2013-04-19 04:21:00,47.0,37.0,30.20,NNE,26,1.0,-999.0,68,0.00,,,0.00,,2013-04-19 09:21:00,
2013-04-19 04:32:00,47.0,37.0,30.20,NNE,26,1.0,-999.0,69,0.00,,,0.00,,2013-04-19 09:32:00,
2013-04-19 04:42:00,47.0,37.0,30.20,NNE,26,1.0,-999.0,69,0.00,,,0.00,,2013-04-19 09:42:00,
2013-04-19 04:52:00,47.0,38.0,30.20,NNE,26,1.0,-999.0,70,0.00,,,0.00,,2013-04-19 09:52:00,
2013-04-19 05:02:00,47.0,38.0,30.20,NNE,26,1.0,-999.0,70,0.00,,,0.00,,2013-04-19 10:02:00,
2013-04-19 05:13:00,45.0,37.0,30.20,NNW,338,4.0,-999.0,72,0.00,,,0.00,,2013-04-19 10:13:00,
2013-04-19 05:23:00,45.0,37.0,30.20,NNW,338,4.0,-999.0,72,0.00,,,0.00,,2013-04-19 10:23:00,
2013-04-19 05:33:00,47.0,37.0,30.20,NNW,345,4.0,-999.0,67,0.00,,,0.00,,2013-04-19 10:33:00,
2013-04-19 05:42:00,46.0,37.0,30.20,NNW,339,6.0,-999.0,70,0.00,,,0.00,,2013-04-19 10:42:00,
2013-04-19 05:52:00,46.0,37.0,30.20,NNW,339,6.0,-999.0,70,0.00,,,0.00,,2013-04-19 10:52:00,
2013-04-19 06:02:00,46.0,37.0,30.20,NNW,339,6.0,-999.0,70,0.00,,,0.00,,2013-04-19 11:02:00,
2013-04-19 06:11:00,46.0,37.0,30.20,NNW,339,6.0,-999.0,70,0.00,,,0.00,,2013-04-19 11:11:00,
2013-04-19 06:22:00,46.0,37.0,30.20,NNW,339,6.0,-999.0,70,0.00,,,0.00,,2013-04-19 11:22:00,
2013-04-19 06:32:00,45.0,36.0,30.19,NNW,337,10.0,-999.0,71,0.00,,,0.00,,2013-04-19 11:32:00,
2013-04-19 06:42:00,45.0,36.0,30.19,NNW,337,10.0,-999.0,71,0.00,,,0.00,,2013-04-19 11:42:00,
2013-04-19 06:52:00,46.0,36.0,30.20,North,355,7.0,-999.0,68,0.00,,,0.00,,2013-04-19 11:52:00,
2013-04-19 07:02:00,46.0,36.0,30.20,North,355,7.0,-999.0,68,0.00,,,0.00,,2013-04-19 12:02:00,
2013-04-19 07:12:00,46.0,36.0,30.20,North,355,7.0,-999.0,68,0.00,,,0.00,,2013-04-19 12:12:00,
2013-04-19 07:22:00,46.0,36.0,30.20,North,355,7.0,-999.0,68,0.00,,,0.00,,2013-04-19 12:22:00,
2013-04-19 07:32:00,47.0,37.0,30.21,North,11,6.0,-999.0,67,0.00,,,0.00,,2013-04-19 12:32:00,
2013-04-19 07:42:00,47.0,37.0,30.21,North,11,6.0,-999.0,67,0.00,,,0.00,,2013-04-19 12:42:00,
2013-04-19 07:53:00,47.0,37.0,30.21,North,11,6.0,-999.0,67,0.00,,,0.00,,2013-04-19 12:53:00,
2013-04-19 08:01:00,47.0,35.0,30.22,NNE,18,10.0,-999.0,63,0.00,,,0.00,,2013-04-19 13:01:00,
2013-04-19 08:11:00,47.0,35.0,30.22,NNE,18,10.0,-999.0,63,0.00,,,0.00,,2013-04-19 13:11:00,
2013-04-19 08:21:00,47.0,35.0,30.22,NNE,18,10.0,-999.0,63,0.00,,,0.00,,2013-04-19 13:21:00,
2013-04-19 08:32:00,47.0,35.0,30.22,NNE,18,10.0,-999.0,63,0.00,,,0.00,,2013-04-19 13:32:00,
2013-04-19 08:42:00,47.0,35.0,30.22,NNE,18,10.0,-999.0,63,0.00,,,0.00,,2013-04-19 13:42:00,
2013-04-19 08:52:00,47.0,35.0,30.22,NNE,18,10.0,-999.0,63,0.00,,,0.00,,2013-04-19 13:52:00,
2013-04-19 09:01:00,47.0,35.0,30.22,NNE,18,10.0,-999.0,63,0.00,,,0.00,,2013-04-19 14:01:00,
2013-04-19 09:11:00,47.0,35.0,30.22,NNE,18,10.0,-999.0,63,0.00,,,0.00,,2013-04-19 14:11:00,
2013-04-19 09:22:00,47.0,35.0,30.22,NNE,18,10.0,-999.0,63,0.00,,,0.00,,2013-04-19 14:22:00,
2013-04-19 09:32:00,47.0,35.0,30.22,NNE,18,10.0,-999.0,63,0.00,,,0.00,,2013-04-19 14:32:00,
2013-04-19 09:42:00,47.0,35.0,30.22,NNE,18,10.0,-999.0,63,0.00,,,0.00,,2013-04-19 14:42:00,
2013-04-19 09:52:00,55.0,31.0,30.26,North,9,13.0,-999.0,39,0.00,,,0.00,,2013-04-19 14:52:00,
2013-04-19 10:01:00,57.0,30.0,30.26,North,355,8.0,-999.0,35,0.00,,,0.00,,2013-04-19 15:01:00,
2013-04-19 10:12:00,58.0,28.0,30.26,North,5,18.0,-999.0,31,0.00,,,0.00,,2013-04-19 15:12:00,
2013-04-19 10:21:00,58.0,28.0,30.26,North,5,18.0,-999.0,31,0.00,,,0.00,,2013-04-19 15:21:00,
2013-04-19 10:33:00,58.0,26.0,30.27,North,350,18.0,-999.0,29,0.00,,,0.00,,2013-04-19 15:33:00,
2013-04-19 10:43:00,58.0,26.0,30.27,North,350,18.0,-999.0,29,0.00,,,0.00,,2013-04-19 15:43:00,
2013-04-19 10:52:00,59.0,28.0,30.27,North,355,12.0,-999.0,30,0.00,,,0.00,,2013-04-19 15:52:00,
2013-04-19 11:03:00,61.0,29.0,30.28,North,355,12.0,-999.0,29,0.00,,,0.00,,2013-04-19 16:03:00,
2013-04-19 11:12:00,61.0,26.0,30.28,North,5,15.0,-999.0,26,0.00,,,0.00,,2013-04-19 16:12:00,
2013-04-19 11:23:00,61.0,26.0,30.28,North,5,15.0,-999.0,26,0.00,,,0.00,,2013-04-19 16:23:00,
2013-04-19 11:32:00,62.0,26.0,30.28,North,351,19.0,-999.0,25,0.00,,,0.00,,2013-04-19 16:32:00,
2013-04-19 11:42:00,62.0,28.0,30.28,North,360,12.0,-999.0,27,0.00,,,0.00,,2013-04-19 16:42:00,
2013-04-19 11:53:00,62.0,28.0,30.28,North,360,12.0,-999.0,27,0.00,,,0.00,,2013-04-19 16:53:00,
2013-04-19 12:02:00,64.0,29.0,30.29,WNW,300,9.0,-999.0,27,0.00,,,0.00,,2013-04-19 17:02:00,
2013-04-19 12:12:00,64.0,29.0,30.29,WNW,300,9.0,-999.0,27,0.00,,,0.00,,2013-04-19 17:12:00,
2013-04-19 12:21:00,64.0,28.0,30.28,NW,326,14.0,-999.0,26,0.00,,,0.00,,2013-04-19 17:21:00,
2013-04-19 12:33:00,63.0,28.0,30.28,North,11,18.0,-999.0,26,0.00,,,0.00,,2013-04-19 17:33:00,
2013-04-19 12:42:00,63.0,28.0,30.28,North,11,18.0,-999.0,26,0.00,,,0.00,,2013-04-19 17:42:00,
2013-04-19 12:52:00,65.0,28.0,30.27,North,355,13.0,-999.0,25,0.00,,,0.00,,2013-04-19 17:52:00,
2013-04-19 13:01:00,65.0,29.0,30.27,North,9,15.0,-999.0,26,0.00,,,0.00,,2013-04-19 18:01:00,
2013-04-19 13:13:00,65.0,29.0,30.27,North,9,15.0,-999.0,26,0.00,,,0.00,,2013-04-19 18:13:00,
2013-04-19 13:23:00,65.0,28.0,30.27,North,5,9.0,-999.0,25,0.00,,,0.00,,2013-04-19 18:23:00,
2013-04-19 13:33:00,65.0,27.0,30.26,NNW,327,12.0,-999.0,24,0.00,,,0.00,,2013-04-19 18:33:00,
2013-04-19 13:42:00,65.0,27.0,30.26,NNW,327,12.0,-999.0,24,0.00,,,0.00,,2013-04-19 18:42:00,
2013-04-19 13:52:00,67.0,30.0,30.25,NNW,338,13.0,-999.0,25,0.00,,,0.00,,2013-04-19 18:52:00,
2013-04-19 14:01:00,66.0,29.0,30.24,North,9,14.0,-999.0,25,0.00,,,0.00,,2013-04-19 19:01:00,
2013-04-19 14:11:00,67.0,29.0,30.24,WNW,293,10.0,-999.0,24,0.00,,,0.00,,2013-04-19 19:11:00,
2013-04-19 14:21:00,67.0,29.0,30.24,WNW,293,10.0,-999.0,24,0.00,,,0.00,,2013-04-19 19:21:00,
2013-04-19 14:32:00,67.0,30.0,30.24,North,5,14.0,-999.0,25,0.00,,,0.00,,2013-04-19 19:32:00,
2013-04-19 14:42:00,67.0,30.0,30.24,North,5,14.0,-999.0,25,0.00,,,0.00,,2013-04-19 19:42:00,
2013-04-19 14:52:00,67.0,30.0,30.22,North,355,11.0,-999.0,25,0.00,,,0.00,,2013-04-19 19:52:00,
2013-04-19 15:02:00,68.0,31.0,30.22,WNW,290,9.0,-999.0,25,0.00,,,0.00,,2013-04-19 20:02:00,
2013-04-19 15:11:00,69.0,30.0,30.22,NNW,336,18.0,-999.0,23,0.00,,,0.00,,2013-04-19 20:11:00,
2013-04-19 15:22:00,69.0,30.0,30.22,NNW,336,18.0,-999.0,23,0.00,,,0.00,,2013-04-19 20:22:00,
2013-04-19 15:32:00,69.0,33.0,30.21,North,350,8.0,-999.0,26,0.00,,,0.00,,2013-04-19 20:32:00,
2013-04-19 15:42:00,69.0,30.0,30.20,NNE,15,19.0,-999.0,23,0.00,,,0.00,,2013-04-19 20:42:00,
2013-04-19 15:52:00,69.0,30.0,30.20,NNE,15,19.0,-999.0,23,0.00,,,0.00,,2013-04-19 20:52:00,
2013-04-19 16:01:00,69.0,31.0,30.19,NNE,13,12.0,-999.0,24,0.00,,,0.00,,2013-04-19 21:01:00,
2013-04-19 16:11:00,69.0,30.0,30.18,NE,39,9.0,-999.0,23,0.00,,,0.00,,2013-04-19 21:11:00,
2013-04-19 16:21:00,69.0,30.0,30.18,NE,39,9.0,-999.0,23,0.00,,,0.00,,2013-04-19 21:21:00,
2013-04-19 16:32:00,69.0,30.0,30.17,North,355,7.0,-999.0,23,0.00,,,0.00,,2013-04-19 21:32:00,
2013-04-19 16:42:00,69.0,30.0,30.17,North,355,7.0,-999.0,23,0.00,,,0.00,,2013-04-19 21:42:00,
2013-04-19 16:53:00,70.0,29.0,30.17,WNW,290,6.0,-999.0,22,0.00,,,0.00,,2013-04-19 21:53:00,
2013-04-19 17:02:00,70.0,28.0,30.16,NNW,333,10.0,-999.0,21,0.00,,,0.00,,2013-04-19 22:02:00,
2013-04-19 17:12:00,70.0,28.0,30.15,WNW,285,8.0,-999.0,21,0.00,,,0.00,,2013-04-19 22:12:00,
2013-04-19 17:22:00,70.0,28.0,30.15,WNW,285,8.0,-999.0,21,0.00,,,0.00,,2013-04-19 22:22:00,
2013-04-19 17:33:00,70.0,27.0,30.15,NNW,343,8.0,-999.0,20,0.00,,,0.00,,2013-04-19 22:33:00,
2013-04-19 17:42:00,70.0,28.0,30.14,NNW,344,10.0,-999.0,21,0.00,,,0.00,,2013-04-19 22:42:00,
2013-04-19 17:52:00,70.0,28.0,30.14,NNW,344,10.0,-999.0,21,0.00,,,0.00,,2013-04-19 22:52:00,
2013-04-19 18:02:00,70.0,27.0,30.14,NNW,342,7.0,-999.0,20,0.00,,,0.00,,2013-04-19 23:02:00,
2013-04-19 18:11:00,70.0,27.0,30.14,NNW,342,7.0,-999.0,20,0.00,,,0.00,,2013-04-19 23:11:00,
2013-04-19 18:22:00,69.0,27.0,30.14,North,349,5.0,-999.0,21,0.00,,,0.00,,2013-04-19 23:22:00,
2013-04-19 18:32:00,69.0,29.0,30.14,NNE,12,6.0,-999.0,22,0.00,,,0.00,,2013-04-19 23:32:00,
2013-04-19 18:42:00,69.0,29.0,30.14,NNE,12,6.0,-999.0,22,0.00,,,0.00,,2013-04-19 23:42:00,
2013-04-19 18:52:00,70.0,28.0,30.14,NNW,335,8.0,-999.0,21,0.00,,,0.00,,2013-04-19 23:52:00,
2013-04-19 19:02:00,69.0,29.0,30.14,NNE,32,6.0,-999.0,22,0.00,,,0.00,,2013-04-20 00:02:00,
2013-04-19 19:12:00,69.0,29.0,30.14,NNE,32,6.0,-999.0,22,0.00,,,0.00,,2013-04-20 00:12:00,
2013-04-19 19:21:00,69.0,29.0,30.14,NNE,12,7.0,-999.0,22,0.00,,,0.00,,2013-04-20 00:21:00,
2013-04-19 19:32:00,68.0,28.0,30.14,North,5,6.0,-999.0,22,0.00,,,0.00,,2013-04-20 00:32:00,
2013-04-19 19:41:00,68.0,28.0,30.14,North,5,6.0,-999.0,22,0.00,,,0.00,,2013-04-20 00:41:00,
2013-04-19 19:52:00,68.0,30.0,30.14,NNE,26,4.0,-999.0,24,0.00,,,0.00,,2013-04-20 00:52:00,
2013-04-19 20:01:00,66.0,29.0,30.14,NE,42,4.0,-999.0,25,0.00,,,0.00,,2013-04-20 01:01:00,
2013-04-19 20:11:00,66.0,29.0,30.14,NE,42,4.0,-999.0,25,0.00,,,0.00,,2013-04-20 01:11:00,
2013-04-19 20:21:00,64.0,30.0,30.14,NE,46,3.0,-999.0,28,0.00,,,0.00,,2013-04-20 01:21:00,
2013-04-19 20:32:00,63.0,31.0,30.14,NE,34,2.0,-999.0,30,0.00,,,0.00,,2013-04-20 01:32:00,
2013-04-19 20:42:00,63.0,31.0,30.14,NE,34,2.0,-999.0,30,0.00,,,0.00,,2013-04-20 01:42:00,
2013-04-19 20:52:00,62.0,30.0,30.15,NE,39,3.0,-999.0,30,0.00,,,0.00,,2013-04-20 01:52:00,
2013-04-19 21:01:00,61.0,30.0,30.15,NE,39,1.0,-999.0,31,0.00,,,0.00,,2013-04-20 02:01:00,
2013-04-19 21:11:00,60.0,30.0,30.16,NE,39,1.0,-999.0,32,0.00,,,0.00,,2013-04-20 02:11:00,
2013-04-19 21:21:00,60.0,30.0,30.16,NE,39,1.0,-999.0,32,0.00,,,0.00,,2013-04-20 02:21:00,
2013-04-19 21:32:00,59.0,31.0,30.17,NE,39,0.0,-999.0,34,0.00,,,0.00,,2013-04-20 02:32:00,
2013-04-19 21:42:00,59.0,31.0,30.17,NE,39,0.0,-999.0,34,0.00,,,0.00,,2013-04-20 02:42:00,
2013-04-19 21:52:00,58.0,32.0,30.17,NE,39,3.0,-999.0,37,0.00,,,0.00,,2013-04-20 02:52:00,
2013-04-19 22:01:00,57.0,32.0,30.17,NE,39,2.0,-999.0,38,0.00,,,0.00,,2013-04-20 03:01:00,
2013-04-19 22:11:00,56.0,31.0,30.18,NE,39,2.0,-999.0,39,0.00,,,0.00,,2013-04-20 03:11:00,
2013-04-19 22:21:00,56.0,31.0,30.18,NE,39,2.0,-999.0,39,0.00,,,0.00,,2013-04-20 03:21:00,
2013-04-19 22:33:00,56.0,31.0,30.18,NE,39,1.0,-999.0,39,0.00,,,0.00,,2013-04-20 03:33:00,
2013-04-19 22:43:00,54.0,33.0,30.19,NE,39,1.0,-999.0,44,0.00,,,0.00,,2013-04-20 03:43:00,
2013-04-19 22:53:00,54.0,33.0,30.19,NE,39,1.0,-999.0,44,0.00,,,0.00,,2013-04-20 03:53:00,
2013-04-19 23:03:00,53.0,32.0,30.19,NE,39,0.0,-999.0,45,0.00,,,0.00,,2013-04-20 04:03:00,
2013-04-19 23:12:00,53.0,32.0,30.19,NE,39,0.0,-999.0,45,0.00,,,0.00,,2013-04-20 04:12:00,
2013-04-19 23:23:00,52.0,32.0,30.20,NE,39,0.0,-999.0,47,0.00,,,0.00,,2013-04-20 04:23:00,
2013-04-19 23:32:00,52.0,33.0,30.20,NE,39,0.0,-999.0,48,0.00,,,0.00,,2013-04-20 04:32:00,
2013-04-19 23:42:00,52.0,33.0,30.20,NE,39,0.0,-999.0,48,0.00,,,0.00,,2013-04-20 04:42:00,
2013-04-19 23:52:00,52.0,33.0,30.20,NE,39,1.0,-999.0,48,0.00,,,0.00,,2013-04-20 04:52:00,